createdAt,value
2022-10-07T00:01:47.411Z,8.65
2022-10-07T00:04:15.784Z,8.55
2022-10-07T00:06:45.406Z,7.53
2022-10-07T00:09:13.507Z,7.72
2022-10-07T00:11:42.616Z,7.40
2022-10-07T00:14:11.742Z,7.47
2022-10-07T00:16:41.772Z,8.35
2022-10-07T00:19:12.922Z,7.60
2022-10-07T00:21:41.669Z,6.88
2022-10-07T00:24:11.484Z,7.32
2022-10-07T00:26:39.679Z,9.35
2022-10-07T00:29:08.109Z,8.50
2022-10-07T00:31:37.666Z,9.38
2022-10-07T00:34:06.409Z,9.35
2022-10-07T00:36:37.356Z,10.13
2022-10-07T00:39:07.722Z,8.32
2022-10-07T00:41:39.018Z,9.05
2022-10-07T00:44:36.685Z,8.80
2022-10-07T00:47:11.680Z,8.80
2022-10-07T00:49:44.984Z,10.00
2022-10-07T00:52:14.071Z,9.93
2022-10-07T00:54:42.240Z,9.07
2022-10-07T00:57:12.094Z,9.80
2022-10-07T00:59:41.477Z,8.55
2022-10-07T01:02:10.135Z,10.13
2022-10-07T01:04:39.632Z,9.77
2022-10-07T01:07:07.672Z,9.30
2022-10-07T01:09:35.919Z,10.73
2022-10-07T01:12:14.587Z,9.88
2022-10-07T01:14:53.072Z,9.02
2022-10-07T01:17:26.916Z,9.07
2022-10-07T01:20:33.757Z,9.23
2022-10-07T01:23:19.935Z,8.85
2022-10-07T01:26:05.089Z,9.40
2022-10-07T01:28:40.395Z,8.82
2022-10-07T01:31:13.334Z,8.35
2022-10-07T01:33:43.691Z,8.52
2022-10-07T01:36:17.391Z,8.88
2022-10-07T01:38:51.476Z,8.05
2022-10-07T01:41:23.165Z,7.20
2022-10-07T01:43:55.053Z,8.88
2022-10-07T01:46:24.614Z,8.50
2022-10-07T01:48:57.734Z,9.13
2022-10-07T01:51:28.208Z,9.48
2022-10-07T01:59:51.213Z,8.95
2022-10-07T02:05:04.604Z,7.85
2022-10-07T02:07:39.081Z,8.73
2022-10-07T02:10:13.727Z,9.50
2022-10-07T02:12:50.232Z,8.35
2022-10-07T02:15:25.590Z,8.60
2022-10-07T02:17:57.310Z,8.98
2022-10-07T02:22:58.902Z,9.07
2022-10-07T02:25:29.968Z,8.75
2022-10-07T02:28:03.432Z,8.38
2022-10-07T02:30:34.205Z,8.63
2022-10-07T02:33:06.729Z,8.85
2022-10-07T02:35:42.392Z,8.85
2022-10-07T02:38:15.178Z,9.05
2022-10-07T02:43:23.137Z,8.82
2022-10-07T02:46:00.276Z,8.18
2022-10-07T02:48:32.306Z,8.38
2022-10-07T02:51:05.210Z,7.60
2022-10-07T02:56:05.192Z,8.57
2022-10-07T02:58:34.603Z,7.75
2022-10-07T03:01:05.457Z,7.65
2022-10-07T03:03:33.651Z,8.20
2022-10-07T03:06:06.159Z,7.60
2022-10-07T03:08:48.264Z,7.78
2022-10-07T03:11:16.457Z,8.60
2022-10-07T03:13:45.351Z,8.75
2022-10-07T03:16:14.971Z,9.23
2022-10-07T03:18:43.120Z,8.73
2022-10-07T03:21:33.512Z,8.43
2022-10-07T03:24:04.836Z,8.50
2022-10-07T03:26:38.455Z,8.40
2022-10-07T03:29:08.300Z,8.98
2022-10-07T03:31:38.567Z,8.85
2022-10-07T03:34:07.924Z,8.18
2022-10-07T03:36:36.712Z,8.50
2022-10-07T03:39:06.615Z,9.07
2022-10-07T03:41:34.910Z,9.35
2022-10-07T03:44:06.646Z,9.32
2022-10-07T03:46:35.490Z,10.45
2022-10-07T03:49:05.163Z,9.98
2022-10-07T03:51:33.922Z,10.10
2022-10-07T03:54:02.858Z,10.32
2022-10-07T03:56:33.647Z,10.65
2022-10-07T03:59:02.262Z,10.38
2022-10-07T04:01:32.227Z,9.60
2022-10-07T04:04:01.717Z,10.38
2022-10-07T04:06:36.091Z,10.40
2022-10-07T04:09:09.533Z,10.10
2022-10-07T04:11:40.515Z,10.73
2022-10-07T04:14:09.648Z,9.77
2022-10-07T04:16:39.776Z,9.27
2022-10-07T04:19:10.156Z,9.27
2022-10-07T04:21:39.917Z,10.02
2022-10-07T04:24:08.027Z,11.38
2022-10-07T04:26:37.966Z,10.57
2022-10-07T04:29:06.719Z,10.60
2022-10-07T04:31:34.877Z,11.05
2022-10-07T04:34:06.800Z,11.18
2022-10-07T04:36:42.563Z,10.88
2022-10-07T04:41:54.958Z,12.80
2022-10-07T04:44:28.116Z,11.70
2022-10-07T04:47:08.447Z,11.80
2022-10-07T04:49:39.517Z,11.90
2022-10-07T04:52:11.313Z,11.63
2022-10-07T04:54:42.018Z,10.90
2022-10-07T04:57:13.490Z,10.57
2022-10-07T04:59:43.333Z,10.18
2022-10-07T05:02:14.737Z,9.83
2022-10-07T05:04:44.269Z,11.23
2022-10-07T05:07:13.952Z,10.65
2022-10-07T05:09:43.965Z,10.50
2022-10-07T05:12:14.242Z,10.43
2022-10-07T05:14:43.135Z,10.10
2022-10-07T05:17:12.977Z,10.50
2022-10-07T05:19:41.729Z,10.93
2022-10-07T05:22:10.026Z,10.25
2022-10-07T05:24:39.609Z,10.25
2022-10-07T05:27:07.927Z,9.98
2022-10-07T05:29:36.961Z,11.43
2022-10-07T05:32:05.476Z,9.27
2022-10-07T05:34:34.631Z,10.35
2022-10-07T05:37:02.645Z,12.27
2022-10-07T05:39:30.742Z,9.35
2022-10-07T05:42:07.780Z,9.38
2022-10-07T05:44:42.859Z,8.65
2022-10-07T05:47:12.706Z,8.30
2022-10-07T05:49:41.573Z,9.30
2022-10-07T05:52:09.658Z,9.80
2022-10-07T05:54:38.288Z,9.98
2022-10-07T05:57:07.704Z,9.35
2022-10-07T05:59:36.238Z,9.68
2022-10-07T06:02:05.409Z,9.50
2022-10-07T06:04:34.430Z,9.40
2022-10-07T06:07:05.405Z,9.90
2022-10-07T06:09:51.397Z,9.80
2022-10-07T06:12:38.963Z,10.20
2022-10-07T06:15:12.240Z,10.25
2022-10-07T06:17:48.925Z,9.77
2022-10-07T06:20:21.054Z,9.88
2022-10-07T06:22:53.197Z,10.50
2022-10-07T06:25:22.338Z,11.48
2022-10-07T06:27:54.643Z,11.30
2022-10-07T06:30:25.731Z,10.40
2022-10-07T06:35:26.194Z,11.13
2022-10-07T06:37:57.136Z,10.75
2022-10-07T06:40:25.243Z,11.15
2022-10-07T06:42:55.138Z,9.80
2022-10-07T06:45:32.662Z,10.30
2022-10-07T06:48:01.757Z,9.95
2022-10-07T06:50:32.858Z,9.82
2022-10-07T06:53:01.625Z,9.63
2022-10-07T06:55:32.873Z,8.30
2022-10-07T06:58:07.757Z,8.95
2022-10-07T07:00:39.673Z,14.18
2022-10-07T07:03:08.311Z,10.50
2022-10-07T07:05:41.495Z,10.60
2022-10-07T07:08:16.818Z,10.07
2022-10-07T07:10:49.056Z,9.43
2022-10-07T07:13:18.587Z,9.57
2022-10-07T07:15:56.100Z,9.27
2022-10-07T07:18:24.991Z,9.25
2022-10-07T07:20:54.101Z,10.57
2022-10-07T07:23:23.395Z,10.82
2022-10-07T07:25:51.418Z,11.00
2022-10-07T07:28:21.203Z,9.48
2022-10-07T07:30:50.497Z,8.73
2022-10-07T07:33:18.862Z,8.52
2022-10-07T07:35:46.922Z,9.60
2022-10-07T07:38:15.206Z,9.25
2022-10-07T07:40:43.443Z,9.43
2022-10-07T07:43:11.477Z,10.07
2022-10-07T07:45:43.132Z,11.48
2022-10-07T07:48:13.001Z,9.63
2022-10-07T07:50:41.712Z,9.23
2022-10-07T07:53:10.066Z,9.60
2022-10-07T07:55:38.936Z,10.13
2022-10-07T07:58:11.707Z,9.00
2022-10-07T08:00:45.974Z,8.98
2022-10-07T08:03:14.549Z,9.00
2022-10-07T08:05:43.529Z,9.00
2022-10-07T08:08:14.207Z,9.85
2022-10-07T08:10:43.082Z,9.40
2022-10-07T08:13:11.508Z,8.52
2022-10-07T08:15:43.696Z,9.13
2022-10-07T08:18:11.774Z,8.73
2022-10-07T08:20:39.790Z,9.05
2022-10-07T08:23:09.056Z,8.57
2022-10-07T08:25:37.441Z,10.75
2022-10-07T08:28:07.492Z,9.10
2022-10-07T08:30:36.056Z,8.20
2022-10-07T08:33:05.694Z,7.50
2022-10-07T08:35:33.672Z,7.90
2022-10-07T08:38:01.802Z,7.53
2022-10-07T08:40:30.054Z,7.38
2022-10-07T08:42:59.422Z,8.48
2022-10-07T08:45:31.595Z,6.28
2022-10-07T08:48:02.251Z,5.22
2022-10-07T08:50:51.584Z,5.90
2022-10-07T08:53:27.160Z,6.13
2022-10-07T08:56:09.267Z,5.78
2022-10-07T08:58:50.800Z,5.67
2022-10-07T09:01:38.956Z,4.57
2022-10-07T09:04:18.470Z,5.45
2022-10-07T09:06:55.341Z,5.53
2022-10-07T09:09:29.006Z,4.93
2022-10-07T09:12:00.661Z,5.32
2022-10-07T09:14:32.344Z,5.90
2022-10-07T09:17:07.561Z,5.43
2022-10-07T09:19:40.817Z,4.93
2022-10-07T09:22:17.344Z,4.82
2022-10-07T09:24:47.431Z,4.32
2022-10-07T09:27:18.256Z,6.38
2022-10-07T09:29:47.379Z,4.60
2022-10-07T09:32:18.772Z,5.25
2022-10-07T09:34:47.592Z,6.25
2022-10-07T09:37:20.825Z,4.82
2022-10-07T09:39:50.577Z,4.45
2022-10-07T09:42:29.596Z,4.57
2022-10-07T09:45:01.149Z,3.92
2022-10-07T09:47:36.051Z,3.97
2022-10-07T09:50:04.637Z,4.63
2022-10-07T09:52:34.177Z,4.25
2022-10-07T09:55:31.831Z,4.05
2022-10-07T09:58:05.115Z,3.85
2022-10-07T10:00:33.908Z,4.05
2022-10-07T10:03:06.513Z,4.55
2022-10-07T10:05:36.650Z,4.25
2022-10-07T10:08:20.371Z,4.75
2022-10-07T10:10:54.290Z,4.28
2022-10-07T10:13:32.657Z,4.40
2022-10-07T10:16:04.047Z,4.43
2022-10-07T10:18:38.585Z,4.55
2022-10-07T10:21:19.836Z,4.63
2022-10-07T10:23:52.459Z,5.10
2022-10-07T10:26:42.008Z,4.72
2022-10-07T10:29:32.359Z,3.50
2022-10-07T10:32:23.579Z,3.63
2022-10-07T10:34:57.897Z,4.00
2022-10-07T10:37:45.470Z,4.82
2022-10-07T10:40:24.625Z,3.88
2022-10-07T10:43:03.609Z,4.78
2022-10-07T10:45:44.014Z,5.95
2022-10-07T10:48:30.203Z,4.35
2022-10-07T10:51:07.078Z,3.60
2022-10-07T10:53:45.495Z,4.70
2022-10-07T10:56:32.298Z,5.10
2022-10-07T10:59:16.655Z,5.28
2022-10-07T11:01:46.319Z,3.40
2022-10-07T11:04:34.573Z,3.25
2022-10-07T11:07:09.393Z,3.45
2022-10-07T11:09:41.706Z,4.35
2022-10-07T11:12:22.217Z,4.32
2022-10-07T11:14:57.760Z,3.78
2022-10-07T11:17:31.287Z,3.80
2022-10-07T11:20:12.769Z,2.83
2022-10-07T11:22:46.428Z,3.38
2022-10-07T11:25:24.522Z,3.30
2022-10-07T11:28:00.417Z,3.15
2022-10-07T11:30:38.624Z,3.80
2022-10-07T11:33:14.579Z,4.70
2022-10-07T11:35:51.332Z,2.90
2022-10-07T11:38:23.017Z,2.70
2022-10-07T11:40:53.513Z,3.72
2022-10-07T11:43:29.870Z,3.13
2022-10-07T11:46:01.505Z,3.03
2022-10-07T11:48:37.621Z,2.45
2022-10-07T11:51:09.256Z,2.55
2022-10-07T11:53:40.421Z,2.28
2022-10-07T11:56:17.650Z,2.60
2022-10-07T11:58:48.849Z,3.20
2022-10-07T12:01:42.177Z,3.90
2022-10-07T12:04:46.777Z,3.63
2022-10-07T12:07:39.224Z,2.83
2022-10-07T12:10:25.903Z,2.73
2022-10-07T12:13:03.560Z,3.72
2022-10-07T12:15:35.913Z,2.60
2022-10-07T12:18:28.464Z,2.95
2022-10-07T12:21:08.144Z,2.88
2022-10-07T12:23:45.720Z,3.20
2022-10-07T12:26:55.818Z,2.88
2022-10-07T12:29:44.666Z,3.75
2022-10-07T12:32:46.282Z,3.70
2022-10-07T12:35:43.967Z,4.40
2022-10-07T12:38:23.401Z,2.83
2022-10-07T12:41:01.654Z,2.40
2022-10-07T12:43:47.623Z,2.80
2022-10-07T12:46:19.314Z,2.42
2022-10-07T12:48:55.781Z,3.70
2022-10-07T12:51:28.253Z,3.28
2022-10-07T12:54:00.139Z,3.63
2022-10-07T12:56:30.619Z,5.57
2022-10-07T12:59:43.473Z,2.65
2022-10-07T13:02:43.932Z,4.50
2022-10-07T13:05:49.854Z,4.75
2022-10-07T13:08:53.657Z,2.60
2022-10-07T13:11:49.280Z,3.33
2022-10-07T13:14:24.259Z,4.78
2022-10-07T13:16:57.985Z,2.80
2022-10-07T13:19:32.037Z,2.90
2022-10-07T13:22:08.085Z,3.22
2022-10-07T13:24:42.333Z,4.05
2022-10-07T13:27:11.306Z,3.70
2022-10-07T13:29:40.361Z,2.90
2022-10-07T13:32:15.203Z,4.20
2022-10-07T13:34:45.486Z,3.97
2022-10-07T13:37:27.748Z,4.22
2022-10-07T13:39:58.284Z,2.72
2022-10-07T13:42:29.883Z,3.47
2022-10-07T13:45:03.321Z,2.78
2022-10-07T13:47:36.301Z,3.67
2022-10-07T13:50:05.286Z,3.50
2022-10-07T13:52:36.590Z,4.47
2022-10-07T13:55:20.688Z,4.10
2022-10-07T13:57:49.286Z,3.72
2022-10-07T14:00:18.289Z,3.13
2022-10-07T14:02:49.127Z,3.78
2022-10-07T14:05:21.879Z,2.80
2022-10-07T14:07:54.693Z,2.95
2022-10-07T14:10:25.962Z,4.03
2022-10-07T14:12:58.827Z,3.65
2022-10-07T14:15:30.196Z,5.35
2022-10-07T14:18:00.485Z,5.07
2022-10-07T14:20:31.405Z,4.70
2022-10-07T14:23:01.651Z,3.58
2022-10-07T14:25:33.243Z,3.72
2022-10-07T14:28:19.742Z,2.80
2022-10-07T14:31:26.285Z,2.80
2022-10-07T14:34:17.480Z,3.05
2022-10-07T14:37:08.132Z,3.83
2022-10-07T14:39:37.845Z,3.97
2022-10-07T14:42:11.941Z,3.58
2022-10-07T14:44:43.951Z,3.60
2022-10-07T14:47:14.819Z,2.92
2022-10-07T14:49:43.709Z,3.08
2022-10-07T14:52:15.059Z,3.08
2022-10-07T14:54:43.437Z,3.42
2022-10-07T14:57:14.999Z,3.85
2022-10-07T14:59:43.237Z,3.63
2022-10-07T15:02:13.478Z,3.90
2022-10-07T15:04:45.263Z,3.88
2022-10-07T15:07:14.386Z,4.70
2022-10-07T15:09:42.694Z,4.72
2022-10-07T15:12:11.991Z,6.93
2022-10-07T15:14:41.437Z,5.38
2022-10-07T15:17:12.020Z,4.40
2022-10-07T15:19:40.647Z,5.18
2022-10-07T15:22:11.133Z,3.97
2022-10-07T15:24:39.845Z,4.13
2022-10-07T15:27:10.109Z,3.58
2022-10-07T15:29:40.289Z,3.88
2022-10-07T15:32:10.377Z,3.55
2022-10-07T15:34:38.668Z,3.50
2022-10-07T15:37:09.409Z,3.63
2022-10-07T15:39:39.843Z,3.72
2022-10-07T15:42:09.229Z,4.35
2022-10-07T15:44:37.350Z,4.03
2022-10-07T15:47:06.183Z,3.33
2022-10-07T15:49:36.195Z,5.13
2022-10-07T15:52:04.215Z,4.28
2022-10-07T15:54:32.651Z,4.00
2022-10-07T15:57:04.455Z,4.50
2022-10-07T15:59:33.214Z,4.82
2022-10-07T16:02:01.551Z,7.78
2022-10-07T16:04:30.191Z,4.68
2022-10-07T16:06:59.657Z,4.70
2022-10-07T16:09:29.122Z,8.48
2022-10-07T16:11:57.319Z,6.10
2022-10-07T16:14:25.620Z,6.93
2022-10-07T16:16:53.742Z,6.93
2022-10-07T16:19:22.314Z,6.38
2022-10-07T16:21:50.360Z,7.05
2022-10-07T16:24:22.295Z,7.80
2022-10-07T16:26:51.607Z,8.48
2022-10-07T16:29:38.921Z,8.63
2022-10-07T16:32:10.647Z,8.45
2022-10-07T16:34:41.993Z,9.98
2022-10-07T16:37:10.481Z,10.60
2022-10-07T16:39:42.344Z,9.30
2022-10-07T16:42:10.371Z,11.40
2022-10-07T16:44:38.790Z,12.65
2022-10-07T16:47:07.108Z,13.48
2022-10-07T16:49:36.431Z,12.63
2022-10-07T16:52:06.458Z,13.95
2022-10-07T16:54:37.361Z,12.03
2022-10-07T16:57:06.848Z,15.32
2022-10-07T16:59:35.519Z,16.25
2022-10-07T17:02:06.625Z,20.15
2022-10-07T17:04:38.340Z,17.58
2022-10-07T17:09:38.629Z,15.25
2022-10-07T17:12:09.206Z,13.00
2022-10-07T17:14:38.956Z,11.63
2022-10-07T17:17:07.892Z,12.30
2022-10-07T17:19:36.760Z,13.55
2022-10-07T17:22:07.240Z,13.07
2022-10-07T17:24:36.717Z,14.18
2022-10-07T17:27:05.341Z,17.23
2022-10-07T17:29:35.909Z,15.43
2022-10-07T17:32:07.076Z,13.68
2022-10-07T17:34:35.395Z,15.90
2022-10-07T17:37:03.603Z,16.08
2022-10-07T17:39:31.994Z,16.38
2022-10-07T17:42:00.312Z,16.10
2022-10-07T17:44:28.596Z,14.63
2022-10-07T17:46:59.776Z,14.93
2022-10-07T17:49:30.216Z,16.60
2022-10-07T17:51:58.923Z,13.60
2022-10-07T17:54:27.368Z,14.07
2022-10-07T17:56:55.438Z,11.77
2022-10-07T17:59:23.543Z,15.30
2022-10-07T18:01:51.887Z,14.30
2022-10-07T18:04:24.937Z,14.98
2022-10-07T18:06:53.889Z,14.65
2022-10-07T18:09:24.334Z,14.30
2022-10-07T18:12:10.095Z,17.35
2022-10-07T18:14:55.638Z,13.80
2022-10-07T18:17:25.044Z,14.40
2022-10-07T18:19:54.706Z,17.67
2022-10-07T18:22:24.664Z,18.98
2022-10-07T18:24:57.276Z,15.15
2022-10-07T18:27:27.042Z,14.93
2022-10-07T18:29:55.874Z,13.50
2022-10-07T18:32:25.305Z,16.15
2022-10-07T18:34:54.941Z,12.40
2022-10-07T18:37:23.880Z,15.45
2022-10-07T18:39:52.200Z,13.73
2022-10-07T18:42:20.323Z,13.80
2022-10-07T18:44:50.284Z,13.63
2022-10-07T18:47:18.421Z,13.93
2022-10-07T18:49:46.579Z,15.30
2022-10-07T18:52:16.018Z,13.02
2022-10-07T18:54:44.109Z,11.23
2022-10-07T18:57:15.721Z,11.98
2022-10-07T18:59:45.549Z,12.65
2022-10-07T19:02:13.887Z,12.63
2022-10-07T19:04:42.019Z,12.23
2022-10-07T19:07:10.785Z,10.35
2022-10-07T19:09:42.462Z,11.35
2022-10-07T19:12:30.540Z,11.60
2022-10-07T19:14:57.772Z,14.43
2022-10-07T19:17:26.377Z,14.82
2022-10-07T19:19:57.811Z,11.90
2022-10-07T19:22:26.168Z,12.65
2022-10-07T19:25:14.920Z,12.45
2022-10-07T19:27:43.266Z,13.15
2022-10-07T19:30:12.233Z,12.40
2022-10-07T19:32:40.798Z,12.73
2022-10-07T19:35:12.193Z,13.50
2022-10-07T19:37:42.450Z,12.65
2022-10-07T19:40:12.266Z,11.98
2022-10-07T19:42:40.878Z,12.90
2022-10-07T19:45:10.297Z,12.98
2022-10-07T19:47:38.445Z,12.70
2022-10-07T19:50:07.239Z,14.27
2022-10-07T19:52:35.332Z,13.30
2022-10-07T19:55:03.837Z,12.23
2022-10-07T19:57:33.393Z,13.02
2022-10-07T20:00:01.666Z,12.68
2022-10-07T20:02:29.928Z,14.32
2022-10-07T20:04:58.139Z,15.23
2022-10-07T20:07:26.172Z,12.00
2022-10-07T20:09:54.540Z,12.80
2022-10-07T20:12:23.019Z,13.88
2022-10-07T20:14:52.604Z,13.02
2022-10-07T20:17:20.689Z,14.30
2022-10-07T20:19:48.861Z,13.52
2022-10-07T20:22:16.899Z,14.05
2022-10-07T20:24:44.935Z,12.32
2022-10-07T20:27:13.025Z,11.63
2022-10-07T20:29:55.250Z,13.95
2022-10-07T20:32:25.293Z,13.27
2022-10-07T20:34:53.522Z,14.05
2022-10-07T20:37:21.972Z,13.35
2022-10-07T20:40:07.383Z,12.77
2022-10-07T20:42:35.698Z,12.82
2022-10-07T20:45:04.152Z,13.85
2022-10-07T20:47:35.827Z,14.35
2022-10-07T20:50:04.040Z,14.27
2022-10-07T20:52:35.118Z,13.43
2022-10-07T20:55:03.109Z,13.25
2022-10-07T20:57:37.834Z,12.77
2022-10-07T21:00:09.341Z,13.02
2022-10-07T21:02:38.652Z,12.45
2022-10-07T21:05:07.883Z,14.95
2022-10-07T21:07:35.977Z,14.85
2022-10-07T21:10:04.274Z,13.95
2022-10-07T21:12:34.384Z,15.50
2022-10-07T21:15:03.903Z,14.10
2022-10-07T21:17:32.018Z,14.38
2022-10-07T21:20:01.436Z,13.10
2022-10-07T21:22:29.679Z,12.73
2022-10-07T21:24:58.684Z,13.52
2022-10-07T21:27:26.802Z,13.73
2022-10-07T21:29:55.341Z,13.10
2022-10-07T21:32:23.473Z,12.52
2022-10-07T21:34:53.988Z,13.45
2022-10-07T21:37:23.445Z,11.38
2022-10-07T21:39:51.606Z,11.80
2022-10-07T21:42:19.639Z,12.27
2022-10-07T21:44:47.954Z,10.98
2022-10-07T21:47:16.154Z,12.40
2022-10-07T21:49:45.336Z,11.48
2022-10-07T21:52:13.548Z,10.68
2022-10-07T21:54:45.238Z,10.77
2022-10-07T21:57:13.350Z,11.23
2022-10-07T21:59:41.635Z,10.88
2022-10-07T22:02:09.885Z,9.88
2022-10-07T22:04:38.092Z,10.68
2022-10-07T22:07:23.864Z,10.88
2022-10-07T22:09:53.292Z,10.77
2022-10-07T22:12:21.397Z,10.07
2022-10-07T22:14:49.455Z,10.25
2022-10-07T22:17:20.283Z,9.77
2022-10-07T22:19:49.399Z,8.95
2022-10-07T22:22:17.675Z,9.93
2022-10-07T22:24:48.174Z,9.18
2022-10-07T22:27:17.998Z,9.27
2022-10-07T22:29:45.977Z,9.27
2022-10-07T22:32:13.922Z,9.65
2022-10-07T22:34:59.479Z,9.02
2022-10-07T22:37:27.602Z,8.55
2022-10-07T22:39:58.098Z,9.55
2022-10-07T22:42:27.692Z,9.27
2022-10-07T22:44:55.725Z,9.70
2022-10-07T22:47:23.659Z,9.32
2022-10-07T22:49:51.674Z,9.20
2022-10-07T22:52:19.668Z,8.90
2022-10-07T22:54:47.732Z,9.80
2022-10-07T22:57:16.552Z,9.98
2022-10-07T22:59:46.242Z,9.10
2022-10-07T23:02:14.494Z,8.57
2022-10-07T23:04:42.556Z,8.52
2022-10-07T23:07:10.679Z,8.48
2022-10-07T23:09:38.655Z,8.25
2022-10-07T23:12:09.137Z,9.63
2022-10-07T23:14:37.220Z,9.45
2022-10-07T23:17:06.569Z,9.20
2022-10-07T23:19:34.626Z,9.95
2022-10-07T23:22:02.627Z,9.20
2022-10-07T23:24:30.714Z,9.13
2022-10-07T23:26:58.970Z,8.93
2022-10-07T23:29:27.099Z,9.50
2022-10-07T23:31:55.196Z,8.90
2022-10-07T23:34:24.910Z,8.60
2022-10-07T23:36:55.253Z,8.90
2022-10-07T23:39:23.447Z,9.70
2022-10-07T23:41:51.473Z,8.57
2022-10-07T23:44:19.771Z,8.57
2022-10-07T23:46:50.007Z,9.52
2022-10-07T23:49:18.170Z,9.98
2022-10-07T23:51:47.554Z,9.77
2022-10-07T23:54:16.110Z,9.98
2022-10-07T23:56:44.282Z,10.13
2022-10-07T23:59:12.305Z,10.30
